sensor_id;sensor_type;location;lat;lon;timestamp;temperature;humidity
18229;DHT22;9239;50.932;3.142;2023-07-31T00:00:20;17.30;99.90
18229;DHT22;9239;50.932;3.142;2023-07-31T00:02:48;17.30;99.90
18229;DHT22;9239;50.932;3.142;2023-07-31T00:05:16;17.40;99.90
18229;DHT22;9239;50.932;3.142;2023-07-31T00:07:42;17.40;99.90
18229;DHT22;9239;50.932;3.142;2023-07-31T00:10:10;17.40;99.90
18229;DHT22;9239;50.932;3.142;2023-07-31T00:12:37;17.40;99.90
18229;DHT22;9239;50.932;3.142;2023-07-31T00:15:05;17.50;99.90
18229;DHT22;9239;50.932;3.142;2023-07-31T00:17:32;17.40;99.90
18229;DHT22;9239;50.932;3.142;2023-07-31T00:20:01;17.50;99.90
18229;DHT22;9239;50.932;3.142;2023-07-31T00:22:27;17.50;99.90
18229;DHT22;9239;50.932;3.142;2023-07-31T00:24:56;17.40;99.90
18229;DHT22;9239;50.932;3.142;2023-07-31T00:27:24;17.40;99.90
18229;DHT22;9239;50.932;3.142;2023-07-31T00:29:50;17.40;99.90
18229;DHT22;9239;50.932;3.142;2023-07-31T00:32:17;17.50;99.90
18229;DHT22;9239;50.932;3.142;2023-07-31T00:34:44;17.50;99.90
18229;DHT22;9239;50.932;3.142;2023-07-31T00:37:12;17.50;99.90
18229;DHT22;9239;50.932;3.142;2023-07-31T00:39:41;17.50;99.90
18229;DHT22;9239;50.932;3.142;2023-07-31T00:42:08;17.50;99.90
18229;DHT22;9239;50.932;3.142;2023-07-31T00:44:36;17.50;99.90
18229;DHT22;9239;50.932;3.142;2023-07-31T00:47:03;17.50;99.90
18229;DHT22;9239;50.932;3.142;2023-07-31T00:49:30;17.50;99.90
18229;DHT22;9239;50.932;3.142;2023-07-31T00:51:59;17.50;99.90
18229;DHT22;9239;50.932;3.142;2023-07-31T00:54:27;17.50;99.90
18229;DHT22;9239;50.932;3.142;2023-07-31T00:56:55;17.50;99.90
18229;DHT22;9239;50.932;3.142;2023-07-31T00:59:21;17.60;99.90
18229;DHT22;9239;50.932;3.142;2023-07-31T01:01:49;17.50;99.90
18229;DHT22;9239;50.932;3.142;2023-07-31T01:04:17;17.50;99.90
18229;DHT22;9239;50.932;3.142;2023-07-31T01:06:48;17.50;99.90
18229;DHT22;9239;50.932;3.142;2023-07-31T01:09:32;17.50;99.90
18229;DHT22;9239;50.932;3.142;2023-07-31T01:12:02;17.50;99.90
18229;DHT22;9239;50.932;3.142;2023-07-31T01:14:29;17.50;99.90
18229;DHT22;9239;50.932;3.142;2023-07-31T01:16:56;17.60;99.90
18229;DHT22;9239;50.932;3.142;2023-07-31T01:19:24;17.50;99.90
18229;DHT22;9239;50.932;3.142;2023-07-31T01:22:16;17.60;99.90
18229;DHT22;9239;50.932;3.142;2023-07-31T01:24:56;17.60;99.90
18229;DHT22;9239;50.932;3.142;2023-07-31T01:27:30;17.60;99.90
18229;DHT22;9239;50.932;3.142;2023-07-31T01:30:05;17.60;99.90
18229;DHT22;9239;50.932;3.142;2023-07-31T01:32:36;17.60;99.90
18229;DHT22;9239;50.932;3.142;2023-07-31T01:35:06;17.60;99.90
18229;DHT22;9239;50.932;3.142;2023-07-31T01:37:33;17.60;99.90
18229;DHT22;9239;50.932;3.142;2023-07-31T01:40:00;17.60;99.90
18229;DHT22;9239;50.932;3.142;2023-07-31T01:42:29;17.60;99.90
18229;DHT22;9239;50.932;3.142;2023-07-31T01:44:55;17.60;99.90
18229;DHT22;9239;50.932;3.142;2023-07-31T01:47:22;17.60;99.90
18229;DHT22;9239;50.932;3.142;2023-07-31T01:49:50;17.60;99.90
18229;DHT22;9239;50.932;3.142;2023-07-31T01:52:17;17.60;99.90
18229;DHT22;9239;50.932;3.142;2023-07-31T01:54:43;17.60;99.90
18229;DHT22;9239;50.932;3.142;2023-07-31T01:57:10;17.60;99.90
18229;DHT22;9239;50.932;3.142;2023-07-31T01:59:39;17.60;99.90
18229;DHT22;9239;50.932;3.142;2023-07-31T02:02:06;17.70;99.90
18229;DHT22;9239;50.932;3.142;2023-07-31T02:04:32;17.70;99.90
18229;DHT22;9239;50.932;3.142;2023-07-31T02:07:00;17.70;99.90
18229;DHT22;9239;50.932;3.142;2023-07-31T02:09:26;17.70;99.90
18229;DHT22;9239;50.932;3.142;2023-07-31T02:11:53;17.70;99.90
18229;DHT22;9239;50.932;3.142;2023-07-31T02:14:20;17.70;99.90
18229;DHT22;9239;50.932;3.142;2023-07-31T02:16:48;17.70;99.90
18229;DHT22;9239;50.932;3.142;2023-07-31T02:19:15;17.70;99.90
18229;DHT22;9239;50.932;3.142;2023-07-31T02:21:42;17.70;99.90
18229;DHT22;9239;50.932;3.142;2023-07-31T02:24:09;17.60;99.90
18229;DHT22;9239;50.932;3.142;2023-07-31T02:26:36;17.60;99.90
18229;DHT22;9239;50.932;3.142;2023-07-31T02:29:03;17.60;99.90
18229;DHT22;9239;50.932;3.142;2023-07-31T02:31:30;17.60;99.90
18229;DHT22;9239;50.932;3.142;2023-07-31T02:33:58;17.70;99.90
18229;DHT22;9239;50.932;3.142;2023-07-31T02:36:25;17.70;99.90
18229;DHT22;9239;50.932;3.142;2023-07-31T02:38:52;17.70;99.90
18229;DHT22;9239;50.932;3.142;2023-07-31T02:41:19;17.70;99.90
18229;DHT22;9239;50.932;3.142;2023-07-31T02:43:45;17.60;99.90
18229;DHT22;9239;50.932;3.142;2023-07-31T02:46:12;17.60;99.90
18229;DHT22;9239;50.932;3.142;2023-07-31T02:48:39;17.50;99.90
18229;DHT22;9239;50.932;3.142;2023-07-31T02:51:07;17.40;99.90
18229;DHT22;9239;50.932;3.142;2023-07-31T02:53:34;17.30;99.90
18229;DHT22;9239;50.932;3.142;2023-07-31T02:56:01;17.20;99.90
18229;DHT22;9239;50.932;3.142;2023-07-31T02:58:28;17.10;99.90
18229;DHT22;9239;50.932;3.142;2023-07-31T03:00:55;17.00;99.90
18229;DHT22;9239;50.932;3.142;2023-07-31T03:03:22;16.90;99.90
18229;DHT22;9239;50.932;3.142;2023-07-31T03:05:49;16.80;99.90
18229;DHT22;9239;50.932;3.142;2023-07-31T03:08:17;16.80;99.90
18229;DHT22;9239;50.932;3.142;2023-07-31T03:10:44;16.70;99.90
18229;DHT22;9239;50.932;3.142;2023-07-31T03:13:11;16.70;99.90
18229;DHT22;9239;50.932;3.142;2023-07-31T03:15:38;16.70;99.90
18229;DHT22;9239;50.932;3.142;2023-07-31T03:18:05;16.70;99.90
18229;DHT22;9239;50.932;3.142;2023-07-31T03:20:32;16.70;99.90
18229;DHT22;9239;50.932;3.142;2023-07-31T03:22:59;16.70;99.90
18229;DHT22;9239;50.932;3.142;2023-07-31T03:25:27;16.70;99.90
18229;DHT22;9239;50.932;3.142;2023-07-31T03:27:54;16.70;99.90
18229;DHT22;9239;50.932;3.142;2023-07-31T03:30:21;16.70;99.90
18229;DHT22;9239;50.932;3.142;2023-07-31T03:32:48;16.60;99.90
18229;DHT22;9239;50.932;3.142;2023-07-31T03:35:15;16.60;99.90
18229;DHT22;9239;50.932;3.142;2023-07-31T03:37:42;16.60;99.90
18229;DHT22;9239;50.932;3.142;2023-07-31T03:40:10;16.70;99.90
18229;DHT22;9239;50.932;3.142;2023-07-31T03:42:38;16.70;99.90
18229;DHT22;9239;50.932;3.142;2023-07-31T03:45:07;16.60;99.90
18229;DHT22;9239;50.932;3.142;2023-07-31T03:47:34;16.70;99.90
18229;DHT22;9239;50.932;3.142;2023-07-31T03:50:01;16.70;99.90
18229;DHT22;9239;50.932;3.142;2023-07-31T03:52:28;16.70;99.90
18229;DHT22;9239;50.932;3.142;2023-07-31T03:54:55;16.70;99.90
18229;DHT22;9239;50.932;3.142;2023-07-31T03:57:22;16.70;99.90
18229;DHT22;9239;50.932;3.142;2023-07-31T03:59:50;16.70;99.90
18229;DHT22;9239;50.932;3.142;2023-07-31T04:02:17;16.70;99.90
18229;DHT22;9239;50.932;3.142;2023-07-31T04:04:45;16.70;99.90
18229;DHT22;9239;50.932;3.142;2023-07-31T04:07:12;16.80;99.90
18229;DHT22;9239;50.932;3.142;2023-07-31T04:09:39;16.80;99.90
18229;DHT22;9239;50.932;3.142;2023-07-31T04:12:06;16.80;99.90
18229;DHT22;9239;50.932;3.142;2023-07-31T04:14:33;16.80;99.90
18229;DHT22;9239;50.932;3.142;2023-07-31T04:17:01;16.80;99.90
18229;DHT22;9239;50.932;3.142;2023-07-31T04:19:28;16.80;99.90
18229;DHT22;9239;50.932;3.142;2023-07-31T04:21:55;16.80;99.90
18229;DHT22;9239;50.932;3.142;2023-07-31T04:24:22;16.90;99.90
18229;DHT22;9239;50.932;3.142;2023-07-31T04:26:50;16.90;99.90
18229;DHT22;9239;50.932;3.142;2023-07-31T04:29:17;16.90;99.90
18229;DHT22;9239;50.932;3.142;2023-07-31T04:31:44;16.90;99.90
18229;DHT22;9239;50.932;3.142;2023-07-31T04:34:13;16.90;99.90
18229;DHT22;9239;50.932;3.142;2023-07-31T04:36:40;16.90;99.90
18229;DHT22;9239;50.932;3.142;2023-07-31T04:39:07;16.90;99.90
18229;DHT22;9239;50.932;3.142;2023-07-31T04:41:34;17.00;99.90
18229;DHT22;9239;50.932;3.142;2023-07-31T04:44:01;17.00;99.90
18229;DHT22;9239;50.932;3.142;2023-07-31T04:46:29;17.00;99.90
18229;DHT22;9239;50.932;3.142;2023-07-31T04:48:56;17.00;99.90
18229;DHT22;9239;50.932;3.142;2023-07-31T04:51:24;17.00;99.90
18229;DHT22;9239;50.932;3.142;2023-07-31T04:53:51;17.10;99.90
18229;DHT22;9239;50.932;3.142;2023-07-31T04:56:18;17.10;99.90
18229;DHT22;9239;50.932;3.142;2023-07-31T04:58:45;17.10;99.90
18229;DHT22;9239;50.932;3.142;2023-07-31T05:01:12;17.10;99.90
18229;DHT22;9239;50.932;3.142;2023-07-31T05:03:39;17.10;99.90
18229;DHT22;9239;50.932;3.142;2023-07-31T05:06:06;17.20;99.90
18229;DHT22;9239;50.932;3.142;2023-07-31T05:08:34;17.10;99.90
18229;DHT22;9239;50.932;3.142;2023-07-31T05:11:02;17.10;99.90
18229;DHT22;9239;50.932;3.142;2023-07-31T05:13:29;17.20;99.90
18229;DHT22;9239;50.932;3.142;2023-07-31T05:15:56;17.20;99.90
18229;DHT22;9239;50.932;3.142;2023-07-31T05:18:23;17.20;99.90
18229;DHT22;9239;50.932;3.142;2023-07-31T05:20:50;17.10;99.90
18229;DHT22;9239;50.932;3.142;2023-07-31T05:23:17;17.20;99.90
18229;DHT22;9239;50.932;3.142;2023-07-31T05:25:45;17.20;99.90
18229;DHT22;9239;50.932;3.142;2023-07-31T05:28:12;17.20;99.90
18229;DHT22;9239;50.932;3.142;2023-07-31T05:30:39;17.10;99.90
18229;DHT22;9239;50.932;3.142;2023-07-31T05:33:06;17.10;99.90
18229;DHT22;9239;50.932;3.142;2023-07-31T05:35:33;17.10;99.90
18229;DHT22;9239;50.932;3.142;2023-07-31T05:38:00;17.10;99.90
18229;DHT22;9239;50.932;3.142;2023-07-31T05:40:27;17.10;99.90
18229;DHT22;9239;50.932;3.142;2023-07-31T05:42:55;17.20;99.90
18229;DHT22;9239;50.932;3.142;2023-07-31T05:45:22;17.20;99.90
18229;DHT22;9239;50.932;3.142;2023-07-31T05:47:49;17.20;99.90
18229;DHT22;9239;50.932;3.142;2023-07-31T05:50:16;17.20;99.90
18229;DHT22;9239;50.932;3.142;2023-07-31T05:52:43;17.20;99.90
18229;DHT22;9239;50.932;3.142;2023-07-31T05:55:10;17.30;99.90
18229;DHT22;9239;50.932;3.142;2023-07-31T05:57:37;17.30;99.90
18229;DHT22;9239;50.932;3.142;2023-07-31T06:00:07;17.30;99.90
18229;DHT22;9239;50.932;3.142;2023-07-31T06:02:34;17.30;99.90
18229;DHT22;9239;50.932;3.142;2023-07-31T06:05:03;17.30;99.90
18229;DHT22;9239;50.932;3.142;2023-07-31T06:07:31;17.30;99.90
18229;DHT22;9239;50.932;3.142;2023-07-31T06:09:58;17.30;99.90
18229;DHT22;9239;50.932;3.142;2023-07-31T06:12:29;17.40;99.90
18229;DHT22;9239;50.932;3.142;2023-07-31T06:14:56;17.40;99.90
18229;DHT22;9239;50.932;3.142;2023-07-31T06:17:25;17.40;99.90
18229;DHT22;9239;50.932;3.142;2023-07-31T06:19:52;17.40;99.90
18229;DHT22;9239;50.932;3.142;2023-07-31T06:22:19;17.50;99.90
18229;DHT22;9239;50.932;3.142;2023-07-31T06:24:46;17.50;99.90
18229;DHT22;9239;50.932;3.142;2023-07-31T06:27:13;17.50;99.90
18229;DHT22;9239;50.932;3.142;2023-07-31T06:29:40;17.50;99.90
18229;DHT22;9239;50.932;3.142;2023-07-31T06:32:07;17.50;99.90
18229;DHT22;9239;50.932;3.142;2023-07-31T06:34:36;17.60;99.90
18229;DHT22;9239;50.932;3.142;2023-07-31T06:37:03;17.60;99.90
18229;DHT22;9239;50.932;3.142;2023-07-31T06:39:33;17.60;99.90
18229;DHT22;9239;50.932;3.142;2023-07-31T06:42:00;17.60;99.90
18229;DHT22;9239;50.932;3.142;2023-07-31T06:44:27;17.60;99.90
18229;DHT22;9239;50.932;3.142;2023-07-31T06:46:54;17.70;99.90
18229;DHT22;9239;50.932;3.142;2023-07-31T06:49:21;17.70;99.90
18229;DHT22;9239;50.932;3.142;2023-07-31T06:51:50;17.70;99.90
18229;DHT22;9239;50.932;3.142;2023-07-31T06:54:17;17.70;99.90
18229;DHT22;9239;50.932;3.142;2023-07-31T06:56:44;17.70;99.90
18229;DHT22;9239;50.932;3.142;2023-07-31T06:59:11;17.80;99.90
18229;DHT22;9239;50.932;3.142;2023-07-31T07:01:38;17.80;99.90
18229;DHT22;9239;50.932;3.142;2023-07-31T07:04:06;17.80;99.90
18229;DHT22;9239;50.932;3.142;2023-07-31T07:06:33;17.80;99.90
18229;DHT22;9239;50.932;3.142;2023-07-31T07:09:01;17.80;99.90
18229;DHT22;9239;50.932;3.142;2023-07-31T07:11:28;17.70;99.90
18229;DHT22;9239;50.932;3.142;2023-07-31T07:13:55;17.70;99.90
18229;DHT22;9239;50.932;3.142;2023-07-31T07:16:22;17.70;99.90
18229;DHT22;9239;50.932;3.142;2023-07-31T07:18:50;17.80;99.90
18229;DHT22;9239;50.932;3.142;2023-07-31T07:21:17;17.80;99.90
18229;DHT22;9239;50.932;3.142;2023-07-31T07:23:44;17.80;99.90
18229;DHT22;9239;50.932;3.142;2023-07-31T07:26:12;17.90;99.90
18229;DHT22;9239;50.932;3.142;2023-07-31T07:28:39;17.80;99.90
18229;DHT22;9239;50.932;3.142;2023-07-31T07:31:06;17.90;99.90
18229;DHT22;9239;50.932;3.142;2023-07-31T07:33:33;17.90;99.90
18229;DHT22;9239;50.932;3.142;2023-07-31T07:36:01;18.00;99.90
18229;DHT22;9239;50.932;3.142;2023-07-31T07:38:28;17.90;99.90
18229;DHT22;9239;50.932;3.142;2023-07-31T07:40:55;17.90;99.90
18229;DHT22;9239;50.932;3.142;2023-07-31T07:43:24;18.00;99.90
18229;DHT22;9239;50.932;3.142;2023-07-31T07:45:51;18.00;99.90
18229;DHT22;9239;50.932;3.142;2023-07-31T07:48:18;18.10;99.90
18229;DHT22;9239;50.932;3.142;2023-07-31T07:50:46;18.00;99.90
18229;DHT22;9239;50.932;3.142;2023-07-31T07:53:13;18.10;99.90
18229;DHT22;9239;50.932;3.142;2023-07-31T07:55:40;18.10;99.90
18229;DHT22;9239;50.932;3.142;2023-07-31T07:58:09;18.10;99.90
18229;DHT22;9239;50.932;3.142;2023-07-31T08:00:37;18.10;99.90
18229;DHT22;9239;50.932;3.142;2023-07-31T08:03:04;18.10;99.90
18229;DHT22;9239;50.932;3.142;2023-07-31T08:05:31;18.10;99.90
18229;DHT22;9239;50.932;3.142;2023-07-31T08:07:59;18.10;99.90
18229;DHT22;9239;50.932;3.142;2023-07-31T08:10:26;18.10;99.90
18229;DHT22;9239;50.932;3.142;2023-07-31T08:12:54;18.10;99.90
18229;DHT22;9239;50.932;3.142;2023-07-31T08:15:21;18.20;99.90
18229;DHT22;9239;50.932;3.142;2023-07-31T08:17:49;18.20;99.90
18229;DHT22;9239;50.932;3.142;2023-07-31T08:20:17;18.20;99.90
18229;DHT22;9239;50.932;3.142;2023-07-31T08:22:44;18.30;99.90
18229;DHT22;9239;50.932;3.142;2023-07-31T08:25:12;18.30;99.90
18229;DHT22;9239;50.932;3.142;2023-07-31T08:27:42;18.30;99.90
18229;DHT22;9239;50.932;3.142;2023-07-31T08:30:11;18.30;99.90
18229;DHT22;9239;50.932;3.142;2023-07-31T08:32:38;18.30;99.90
18229;DHT22;9239;50.932;3.142;2023-07-31T08:35:06;18.30;99.90
18229;DHT22;9239;50.932;3.142;2023-07-31T08:37:33;18.30;99.90
18229;DHT22;9239;50.932;3.142;2023-07-31T08:40:00;18.20;99.90
18229;DHT22;9239;50.932;3.142;2023-07-31T08:42:28;18.20;99.90
18229;DHT22;9239;50.932;3.142;2023-07-31T08:44:56;18.10;99.90
18229;DHT22;9239;50.932;3.142;2023-07-31T08:47:23;18.10;99.90
18229;DHT22;9239;50.932;3.142;2023-07-31T08:49:51;18.10;99.90
18229;DHT22;9239;50.932;3.142;2023-07-31T08:52:21;18.10;99.90
18229;DHT22;9239;50.932;3.142;2023-07-31T08:54:48;18.10;99.90
18229;DHT22;9239;50.932;3.142;2023-07-31T08:57:15;18.20;99.90
18229;DHT22;9239;50.932;3.142;2023-07-31T08:59:44;18.20;99.90
18229;DHT22;9239;50.932;3.142;2023-07-31T09:02:13;18.20;99.90
18229;DHT22;9239;50.932;3.142;2023-07-31T09:04:42;18.30;99.90
18229;DHT22;9239;50.932;3.142;2023-07-31T09:07:09;18.30;99.90
18229;DHT22;9239;50.932;3.142;2023-07-31T09:09:40;18.30;99.90
18229;DHT22;9239;50.932;3.142;2023-07-31T09:12:07;18.30;99.90
18229;DHT22;9239;50.932;3.142;2023-07-31T09:14:35;18.30;99.90
18229;DHT22;9239;50.932;3.142;2023-07-31T09:17:03;18.30;99.90
18229;DHT22;9239;50.932;3.142;2023-07-31T09:19:33;18.30;99.90
18229;DHT22;9239;50.932;3.142;2023-07-31T09:22:03;18.30;99.90
18229;DHT22;9239;50.932;3.142;2023-07-31T09:24:32;18.40;99.90
18229;DHT22;9239;50.932;3.142;2023-07-31T09:27:01;18.50;99.90
18229;DHT22;9239;50.932;3.142;2023-07-31T09:29:29;18.60;99.90
18229;DHT22;9239;50.932;3.142;2023-07-31T09:31:56;18.70;99.90
18229;DHT22;9239;50.932;3.142;2023-07-31T09:34:29;18.80;99.90
18229;DHT22;9239;50.932;3.142;2023-07-31T09:37:01;18.90;99.90
18229;DHT22;9239;50.932;3.142;2023-07-31T09:39:29;19.00;99.90
18229;DHT22;9239;50.932;3.142;2023-07-31T09:41:57;19.00;99.90
18229;DHT22;9239;50.932;3.142;2023-07-31T09:44:39;19.00;99.90
18229;DHT22;9239;50.932;3.142;2023-07-31T09:47:07;18.90;99.90
18229;DHT22;9239;50.932;3.142;2023-07-31T09:49:47;18.90;99.90
18229;DHT22;9239;50.932;3.142;2023-07-31T09:52:14;18.90;99.90
18229;DHT22;9239;50.932;3.142;2023-07-31T09:54:42;18.80;99.90
18229;DHT22;9239;50.932;3.142;2023-07-31T09:57:09;18.80;99.90
18229;DHT22;9239;50.932;3.142;2023-07-31T09:59:38;18.70;99.90
18229;DHT22;9239;50.932;3.142;2023-07-31T10:02:09;18.70;99.90
18229;DHT22;9239;50.932;3.142;2023-07-31T10:04:38;18.80;99.90
18229;DHT22;9239;50.932;3.142;2023-07-31T10:07:05;18.80;99.90
18229;DHT22;9239;50.932;3.142;2023-07-31T10:09:33;18.80;99.90
18229;DHT22;9239;50.932;3.142;2023-07-31T10:12:03;18.90;99.90
18229;DHT22;9239;50.932;3.142;2023-07-31T10:14:32;18.90;99.90
18229;DHT22;9239;50.932;3.142;2023-07-31T10:17:02;19.00;99.90
18229;DHT22;9239;50.932;3.142;2023-07-31T10:19:30;19.20;99.90
18229;DHT22;9239;50.932;3.142;2023-07-31T10:21:57;19.30;99.90
18229;DHT22;9239;50.932;3.142;2023-07-31T10:24:24;19.40;99.90
18229;DHT22;9239;50.932;3.142;2023-07-31T10:26:53;19.50;99.90
18229;DHT22;9239;50.932;3.142;2023-07-31T10:29:23;19.50;99.90
18229;DHT22;9239;50.932;3.142;2023-07-31T10:31:51;19.50;99.90
18229;DHT22;9239;50.932;3.142;2023-07-31T10:34:19;19.50;99.90
18229;DHT22;9239;50.932;3.142;2023-07-31T10:36:46;19.50;99.90
18229;DHT22;9239;50.932;3.142;2023-07-31T10:39:36;19.50;99.90
18229;DHT22;9239;50.932;3.142;2023-07-31T10:42:13;19.50;99.90
18229;DHT22;9239;50.932;3.142;2023-07-31T10:44:44;19.60;99.90
18229;DHT22;9239;50.932;3.142;2023-07-31T10:47:14;19.50;99.90
18229;DHT22;9239;50.932;3.142;2023-07-31T10:49:46;19.50;99.90
18229;DHT22;9239;50.932;3.142;2023-07-31T10:52:13;19.50;99.90
18229;DHT22;9239;50.932;3.142;2023-07-31T10:54:40;19.50;99.90
18229;DHT22;9239;50.932;3.142;2023-07-31T10:57:19;19.60;99.90
18229;DHT22;9239;50.932;3.142;2023-07-31T10:59:47;19.60;99.90
18229;DHT22;9239;50.932;3.142;2023-07-31T11:02:24;19.60;99.90
18229;DHT22;9239;50.932;3.142;2023-07-31T11:05:08;19.70;99.90
18229;DHT22;9239;50.932;3.142;2023-07-31T11:07:47;19.80;99.90
18229;DHT22;9239;50.932;3.142;2023-07-31T11:10:17;19.80;99.90
18229;DHT22;9239;50.932;3.142;2023-07-31T11:12:45;19.80;99.90
18229;DHT22;9239;50.932;3.142;2023-07-31T11:15:13;19.80;99.90
18229;DHT22;9239;50.932;3.142;2023-07-31T11:17:40;19.80;99.90
18229;DHT22;9239;50.932;3.142;2023-07-31T11:20:09;19.80;99.90
18229;DHT22;9239;50.932;3.142;2023-07-31T11:22:37;19.80;99.90
18229;DHT22;9239;50.932;3.142;2023-07-31T11:25:04;19.80;99.90
18229;DHT22;9239;50.932;3.142;2023-07-31T11:27:38;19.80;99.90
18229;DHT22;9239;50.932;3.142;2023-07-31T11:30:07;19.90;99.90
18229;DHT22;9239;50.932;3.142;2023-07-31T11:32:35;19.90;99.90
18229;DHT22;9239;50.932;3.142;2023-07-31T11:35:03;19.90;99.90
18229;DHT22;9239;50.932;3.142;2023-07-31T11:37:40;20.00;99.90
18229;DHT22;9239;50.932;3.142;2023-07-31T11:40:08;20.00;99.90
18229;DHT22;9239;50.932;3.142;2023-07-31T11:42:36;20.10;99.90
18229;DHT22;9239;50.932;3.142;2023-07-31T11:45:04;20.00;99.90
18229;DHT22;9239;50.932;3.142;2023-07-31T11:47:32;20.10;99.90
18229;DHT22;9239;50.932;3.142;2023-07-31T11:50:01;20.10;99.90
18229;DHT22;9239;50.932;3.142;2023-07-31T11:52:30;20.10;99.90
18229;DHT22;9239;50.932;3.142;2023-07-31T11:54:59;20.10;99.90
18229;DHT22;9239;50.932;3.142;2023-07-31T11:57:28;20.00;99.90
18229;DHT22;9239;50.932;3.142;2023-07-31T11:59:56;20.00;99.90
18229;DHT22;9239;50.932;3.142;2023-07-31T12:02:24;20.00;99.90
18229;DHT22;9239;50.932;3.142;2023-07-31T12:04:51;20.00;99.90
18229;DHT22;9239;50.932;3.142;2023-07-31T12:07:18;20.00;99.90
18229;DHT22;9239;50.932;3.142;2023-07-31T12:09:52;20.00;99.90
18229;DHT22;9239;50.932;3.142;2023-07-31T12:12:25;19.90;99.90
18229;DHT22;9239;50.932;3.142;2023-07-31T12:14:52;19.80;99.90
18229;DHT22;9239;50.932;3.142;2023-07-31T12:17:20;19.70;99.90
18229;DHT22;9239;50.932;3.142;2023-07-31T12:19:48;19.60;99.90
18229;DHT22;9239;50.932;3.142;2023-07-31T12:22:16;19.50;99.90
18229;DHT22;9239;50.932;3.142;2023-07-31T12:24:44;19.40;99.90
18229;DHT22;9239;50.932;3.142;2023-07-31T12:27:12;19.30;99.90
18229;DHT22;9239;50.932;3.142;2023-07-31T12:29:42;19.30;99.90
18229;DHT22;9239;50.932;3.142;2023-07-31T12:32:20;19.10;99.90
18229;DHT22;9239;50.932;3.142;2023-07-31T12:34:49;19.00;99.90
18229;DHT22;9239;50.932;3.142;2023-07-31T12:37:21;18.90;99.90
18229;DHT22;9239;50.932;3.142;2023-07-31T12:39:50;18.70;99.90
18229;DHT22;9239;50.932;3.142;2023-07-31T12:42:18;18.60;99.90
18229;DHT22;9239;50.932;3.142;2023-07-31T12:44:46;18.50;99.90
18229;DHT22;9239;50.932;3.142;2023-07-31T12:47:13;18.40;99.90
18229;DHT22;9239;50.932;3.142;2023-07-31T12:49:40;18.30;99.90
18229;DHT22;9239;50.932;3.142;2023-07-31T12:52:07;18.20;99.90
18229;DHT22;9239;50.932;3.142;2023-07-31T12:54:34;18.20;99.90
18229;DHT22;9239;50.932;3.142;2023-07-31T12:57:02;18.20;99.90
18229;DHT22;9239;50.932;3.142;2023-07-31T12:59:30;18.20;99.90
18229;DHT22;9239;50.932;3.142;2023-07-31T13:01:58;18.20;99.90
18229;DHT22;9239;50.932;3.142;2023-07-31T13:04:26;18.20;99.90
18229;DHT22;9239;50.932;3.142;2023-07-31T13:06:53;18.10;99.90
18229;DHT22;9239;50.932;3.142;2023-07-31T13:09:20;18.20;99.90
18229;DHT22;9239;50.932;3.142;2023-07-31T13:11:47;18.20;99.90
18229;DHT22;9239;50.932;3.142;2023-07-31T13:14:14;18.20;99.90
18229;DHT22;9239;50.932;3.142;2023-07-31T13:16:41;18.20;99.90
18229;DHT22;9239;50.932;3.142;2023-07-31T13:19:09;18.30;99.90
18229;DHT22;9239;50.932;3.142;2023-07-31T13:21:36;18.20;99.90
18229;DHT22;9239;50.932;3.142;2023-07-31T13:24:04;18.20;99.90
18229;DHT22;9239;50.932;3.142;2023-07-31T13:26:31;18.20;99.90
18229;DHT22;9239;50.932;3.142;2023-07-31T13:28:58;18.20;99.90
18229;DHT22;9239;50.932;3.142;2023-07-31T13:31:25;18.20;99.90
18229;DHT22;9239;50.932;3.142;2023-07-31T13:33:52;18.20;99.90
18229;DHT22;9239;50.932;3.142;2023-07-31T13:36:20;18.20;99.90
18229;DHT22;9239;50.932;3.142;2023-07-31T13:38:47;18.30;99.90
18229;DHT22;9239;50.932;3.142;2023-07-31T13:41:14;18.30;99.90
18229;DHT22;9239;50.932;3.142;2023-07-31T13:43:41;18.20;99.90
18229;DHT22;9239;50.932;3.142;2023-07-31T13:46:08;18.20;99.90
18229;DHT22;9239;50.932;3.142;2023-07-31T13:48:36;18.30;99.90
18229;DHT22;9239;50.932;3.142;2023-07-31T13:51:03;18.20;99.90
18229;DHT22;9239;50.932;3.142;2023-07-31T13:53:32;18.30;99.90
18229;DHT22;9239;50.932;3.142;2023-07-31T13:55:59;18.30;99.90
18229;DHT22;9239;50.932;3.142;2023-07-31T13:58:26;18.30;99.90
18229;DHT22;9239;50.932;3.142;2023-07-31T14:00:53;18.40;99.90
18229;DHT22;9239;50.932;3.142;2023-07-31T14:03:20;18.30;99.90
18229;DHT22;9239;50.932;3.142;2023-07-31T14:05:47;18.30;99.90
18229;DHT22;9239;50.932;3.142;2023-07-31T14:08:14;18.30;99.90
18229;DHT22;9239;50.932;3.142;2023-07-31T14:10:43;18.30;99.90
18229;DHT22;9239;50.932;3.142;2023-07-31T14:13:10;18.30;99.90
18229;DHT22;9239;50.932;3.142;2023-07-31T14:15:37;18.30;99.90
18229;DHT22;9239;50.932;3.142;2023-07-31T14:18:04;18.30;99.90
18229;DHT22;9239;50.932;3.142;2023-07-31T14:20:31;18.30;99.90
18229;DHT22;9239;50.932;3.142;2023-07-31T14:22:58;18.30;99.90
18229;DHT22;9239;50.932;3.142;2023-07-31T14:25:25;18.30;99.90
18229;DHT22;9239;50.932;3.142;2023-07-31T14:27:54;18.40;99.90
18229;DHT22;9239;50.932;3.142;2023-07-31T14:30:21;18.40;99.90
18229;DHT22;9239;50.932;3.142;2023-07-31T14:32:49;18.40;99.90
18229;DHT22;9239;50.932;3.142;2023-07-31T14:35:20;18.40;99.90
18229;DHT22;9239;50.932;3.142;2023-07-31T14:37:50;18.40;99.90
18229;DHT22;9239;50.932;3.142;2023-07-31T14:40:21;18.40;99.90
18229;DHT22;9239;50.932;3.142;2023-07-31T14:42:49;18.30;99.90
18229;DHT22;9239;50.932;3.142;2023-07-31T14:45:17;18.40;99.90
18229;DHT22;9239;50.932;3.142;2023-07-31T14:47:45;18.30;99.90
18229;DHT22;9239;50.932;3.142;2023-07-31T14:50:12;18.30;99.90
18229;DHT22;9239;50.932;3.142;2023-07-31T14:52:39;18.30;99.90
18229;DHT22;9239;50.932;3.142;2023-07-31T14:55:07;18.30;99.90
18229;DHT22;9239;50.932;3.142;2023-07-31T14:57:34;18.40;99.90
18229;DHT22;9239;50.932;3.142;2023-07-31T15:00:01;18.30;99.90
18229;DHT22;9239;50.932;3.142;2023-07-31T15:02:34;18.30;99.90
18229;DHT22;9239;50.932;3.142;2023-07-31T15:05:01;18.30;99.90
18229;DHT22;9239;50.932;3.142;2023-07-31T15:07:28;18.40;99.90
18229;DHT22;9239;50.932;3.142;2023-07-31T15:09:55;18.30;99.90
18229;DHT22;9239;50.932;3.142;2023-07-31T15:12:22;18.30;99.90
18229;DHT22;9239;50.932;3.142;2023-07-31T15:14:49;18.40;99.90
18229;DHT22;9239;50.932;3.142;2023-07-31T15:17:17;18.40;99.90
18229;DHT22;9239;50.932;3.142;2023-07-31T15:19:46;18.40;99.90
18229;DHT22;9239;50.932;3.142;2023-07-31T15:22:13;18.40;99.90
18229;DHT22;9239;50.932;3.142;2023-07-31T15:24:40;18.40;99.90
18229;DHT22;9239;50.932;3.142;2023-07-31T15:27:08;18.40;99.90
18229;DHT22;9239;50.932;3.142;2023-07-31T15:29:35;18.40;99.90
18229;DHT22;9239;50.932;3.142;2023-07-31T15:32:03;18.40;99.90
18229;DHT22;9239;50.932;3.142;2023-07-31T15:34:31;18.40;99.90
18229;DHT22;9239;50.932;3.142;2023-07-31T15:36:59;18.40;99.90
18229;DHT22;9239;50.932;3.142;2023-07-31T15:39:26;18.30;99.90
18229;DHT22;9239;50.932;3.142;2023-07-31T15:41:53;18.40;99.90
18229;DHT22;9239;50.932;3.142;2023-07-31T15:44:20;18.40;99.90
18229;DHT22;9239;50.932;3.142;2023-07-31T15:46:48;18.40;99.90
18229;DHT22;9239;50.932;3.142;2023-07-31T15:49:15;18.40;99.90